KCUH/CUH METAR and TAF weather

Enter ICAO airport designator
Station Type Date Time Source
KCUH METAR 2020/03/28 20:35 UTC NOAA

KCUH 282035Z AUTO 27019G28KT 10SM CLR 20/05 A2972 RMK AO2 T02020046


Station Type Date Time Source
KCUH Decoded METAR 2020/03/28 20:35 UTC NOAA

Cushing, Cushing Municipal Airport, OK, United States (KCUH) 35-56-59N 096-46-22W
Mar 28, 2020 - 04:35 PM EDT / 2020.03.28 2035 UTC
Wind: from the W (270 degrees) at 22 MPH (19 KT) gusting to 32 MPH (28 KT):0
Visibility: 10 mile(s):0
Sky conditions: clear
Temperature: 68.4 F (20.2 C)
Dew Point: 40.3 F (4.6 C)
Relative Humidity: 35%
Pressure (altimeter): 29.72 in. Hg (1006 hPa)
ob: KCUH 282035Z AUTO 27019G28KT 10SM CLR 20/05 A2972 RMK AO2 T02020046
cycle: 20

Station Type Date Time Source
KCUH TAF UTC NOAA

Error!

Example: see airport list